Pays
Station

 

Conditions  météo  pour  Forli  -  Italie    Italie

  
17 °C
    
 
 

METAR pour Forli :

LIPK 221650Z VRB01KT CAVOK 17/M01 Q1036

 

Voici le bulletin pour Forli - Italie.
 
Le bulletin a été fait il y a 14 heures et 41 minutes, à 16:50 UTC .
Le vent soufflait à la vitesse de 0.5 mètres par seconde de direction variable.
 
La température était de 17 °C, avec un point de rosée à -1 °C.
La pression atmosphérique était de 1036 hPa.
L'humidité relative était de 29.3%.
 
Il y avait pas de nuages en-dessous de 1500 mètres et pas de cumulonimbus.
 
La visibilité globale était de supérieure à 10 kilomètres.
 

 
 
 

Pays :   A   B   C   D   E   F   G   H   I   J   K   L   M   N   O   P   Q   R   S   T   U   V   W   Y   Z

 

Partenaires :  Info Météo avec Met'info
Météo Marine avec MeteoMarine.net
Infos Site  |  Infos Légales  |  Crédits  |  Confidentialité
Contactez-nous  |  Ajouter aux favoris
© 2013-2019 METAR - Tous droits réservés